createdAt,value
2022-07-26T00:01:55.987Z,97944.34
2022-07-26T00:04:00.974Z,97944.34
2022-07-26T00:06:05.627Z,97946.16
2022-07-26T00:08:13.442Z,97938.81
2022-07-26T00:10:20.743Z,97944.66
2022-07-26T00:12:25.859Z,97940.84
2022-07-26T00:14:30.797Z,97940.00
2022-07-26T00:16:39.353Z,97938.34
2022-07-26T00:18:44.861Z,97941.00
2022-07-26T00:20:49.993Z,97935.00
2022-07-26T00:22:55.435Z,97932.66
2022-07-26T00:25:00.122Z,97931.34
2022-07-26T00:27:05.018Z,97939.00
2022-07-26T00:29:10.302Z,97948.00
2022-07-26T00:31:15.661Z,97943.31
2022-07-26T00:33:22.837Z,97939.34
2022-07-26T00:35:28.334Z,97943.16
2022-07-26T00:37:33.728Z,97946.47
2022-07-26T00:39:38.677Z,97942.16
2022-07-26T00:41:43.587Z,97943.84
2022-07-26T00:43:59.477Z,97954.00
2022-07-26T00:46:04.909Z,97958.97
2022-07-26T00:48:10.206Z,97956.16
2022-07-26T00:50:21.800Z,97952.59
2022-07-26T00:52:26.959Z,97959.22
2022-07-26T00:54:31.692Z,97962.56
2022-07-26T00:56:37.366Z,97952.72
2022-07-26T00:58:42.230Z,97953.91
2022-07-26T01:00:49.845Z,97952.53
2022-07-26T01:02:54.810Z,97942.56
2022-07-26T01:04:59.841Z,97944.91
2022-07-26T01:07:14.770Z,97946.06
2022-07-26T01:09:21.809Z,97946.84
2022-07-26T01:11:26.653Z,97943.38
2022-07-26T01:13:35.087Z,97962.34
2022-07-26T01:15:40.872Z,97952.19
2022-07-26T01:17:47.493Z,97946.53
2022-07-26T01:19:52.352Z,97957.97
2022-07-26T01:21:59.892Z,97950.78
2022-07-26T01:24:05.497Z,97953.75
2022-07-26T01:26:11.343Z,97954.81
2022-07-26T01:28:19.617Z,97946.50
2022-07-26T01:30:25.132Z,97946.34
2022-07-26T01:32:29.976Z,97954.34
2022-07-26T01:34:35.424Z,97954.00
2022-07-26T01:36:40.252Z,97950.69
2022-07-26T01:38:48.058Z,97954.53
2022-07-26T01:40:52.921Z,97949.72
2022-07-26T01:42:57.855Z,97950.22
2022-07-26T01:45:02.822Z,97950.03
2022-07-26T01:47:07.545Z,97960.13
2022-07-26T01:49:12.622Z,97961.56
2022-07-26T01:51:17.780Z,97955.81
2022-07-26T01:53:24.562Z,97960.94
2022-07-26T01:55:32.063Z,97960.44
2022-07-26T01:57:37.939Z,97953.44
2022-07-26T01:59:42.883Z,97950.94
2022-07-26T02:01:47.897Z,97948.47
2022-07-26T02:03:52.902Z,97949.84
2022-07-26T02:05:57.746Z,97953.63
2022-07-26T02:08:02.706Z,97952.50
2022-07-26T02:10:08.739Z,97959.66
2022-07-26T02:12:21.618Z,97963.09
2022-07-26T02:14:28.026Z,97970.91
2022-07-26T02:16:33.072Z,97962.91
2022-07-26T02:18:38.429Z,97958.59
2022-07-26T02:20:43.382Z,97956.72
2022-07-26T02:22:48.242Z,97953.78
2022-07-26T02:24:53.396Z,97938.78
2022-07-26T02:26:58.601Z,97938.31
2022-07-26T02:29:05.925Z,97947.59
2022-07-26T02:31:11.678Z,97954.91
2022-07-26T02:33:21.525Z,97947.84
2022-07-26T02:35:26.475Z,97949.22
2022-07-26T02:37:31.341Z,97947.56
2022-07-26T02:39:41.410Z,97951.69
2022-07-26T02:41:46.494Z,97952.53
2022-07-26T02:43:51.338Z,97959.19
2022-07-26T02:46:01.727Z,97955.63
2022-07-26T02:48:07.691Z,97967.78
2022-07-26T02:50:13.511Z,97970.63
2022-07-26T02:52:18.444Z,97979.44
2022-07-26T02:54:23.312Z,97975.72
2022-07-26T02:56:28.340Z,97982.66
2022-07-26T02:58:32.977Z,97978.94
2022-07-26T03:00:37.836Z,97978.91
2022-07-26T03:02:45.624Z,97977.91
2022-07-26T03:04:50.533Z,97981.38
2022-07-26T03:06:55.454Z,97983.97
2022-07-26T03:09:00.357Z,97973.78
2022-07-26T03:11:08.990Z,97982.16
2022-07-26T03:13:16.758Z,97989.22
2022-07-26T03:15:21.358Z,97989.22
2022-07-26T03:17:26.563Z,97989.88
2022-07-26T03:19:34.090Z,97995.19
2022-07-26T03:21:39.031Z,97991.88
2022-07-26T03:23:43.846Z,97990.03
2022-07-26T03:25:48.667Z,97988.06
2022-07-26T03:27:53.582Z,97994.38
2022-07-26T03:29:59.065Z,97983.03
2022-07-26T03:32:03.676Z,97987.47
2022-07-26T03:34:08.992Z,97988.06
2022-07-26T03:36:16.687Z,97988.31
2022-07-26T03:38:21.626Z,97993.03
2022-07-26T03:40:26.337Z,97989.16
2022-07-26T03:42:31.126Z,97996.81
2022-07-26T03:44:35.999Z,97990.34
2022-07-26T03:46:40.958Z,97987.38
2022-07-26T03:48:45.630Z,97996.28
2022-07-26T03:50:53.573Z,97990.25
2022-07-26T03:53:01.039Z,97992.63
2022-07-26T03:55:26.375Z,97995.69
2022-07-26T03:57:28.671Z,97997.41
2022-07-26T03:59:33.536Z,97996.13
2022-07-26T04:01:41.827Z,97999.16
2022-07-26T04:03:47.908Z,98000.69
2022-07-26T04:05:52.955Z,98004.84
2022-07-26T04:08:00.428Z,98005.31
2022-07-26T04:10:05.402Z,98010.81
2022-07-26T04:12:10.410Z,98011.81
2022-07-26T04:14:15.116Z,98013.50
2022-07-26T04:16:20.088Z,98011.97
2022-07-26T04:18:24.800Z,98017.06
2022-07-26T04:20:29.773Z,98017.22
2022-07-26T04:22:34.652Z,98009.00
2022-07-26T04:24:42.083Z,98016.47
2022-07-26T04:26:46.997Z,98014.41
2022-07-26T04:28:52.095Z,98014.63
2022-07-26T04:30:56.781Z,98017.84
2022-07-26T04:33:01.662Z,98006.75
2022-07-26T04:35:07.044Z,98010.47
2022-07-26T04:37:11.933Z,98014.13
2022-07-26T04:39:16.901Z,98014.91
2022-07-26T04:41:24.269Z,98014.72
2022-07-26T04:43:29.377Z,98011.06
2022-07-26T04:45:34.258Z,98017.28
2022-07-26T04:47:39.404Z,98019.34
2022-07-26T04:49:44.640Z,98023.00
2022-07-26T04:51:49.519Z,98022.81
2022-07-26T04:53:54.386Z,98027.63
2022-07-26T04:55:59.243Z,98028.09
2022-07-26T04:58:06.842Z,98033.84
2022-07-26T05:00:23.764Z,98026.66
2022-07-26T05:02:29.249Z,98030.56
2022-07-26T05:04:33.873Z,98037.56
2022-07-26T05:06:39.157Z,98035.06
2022-07-26T05:08:44.393Z,98030.53
2022-07-26T05:10:55.220Z,98026.03
2022-07-26T05:13:01.049Z,98025.94
2022-07-26T05:15:14.051Z,98033.75
2022-07-26T05:17:19.486Z,98031.69
2022-07-26T05:19:24.768Z,98032.56
2022-07-26T05:21:30.310Z,98030.94
2022-07-26T05:23:35.270Z,98035.84
2022-07-26T05:25:41.621Z,98032.19
2022-07-26T05:27:47.091Z,98034.72
2022-07-26T05:29:52.009Z,98026.56
2022-07-26T05:31:59.468Z,98019.19
2022-07-26T05:34:04.431Z,98020.84
2022-07-26T05:36:09.905Z,98009.13
2022-07-26T05:38:17.228Z,98012.31
2022-07-26T05:40:22.615Z,98014.00
2022-07-26T05:42:28.184Z,98007.84
2022-07-26T05:44:33.069Z,98015.84
2022-07-26T05:46:37.949Z,98013.81
2022-07-26T05:48:45.344Z,98015.59
2022-07-26T05:50:50.317Z,98016.59
2022-07-26T05:52:55.193Z,98011.72
2022-07-26T05:55:00.033Z,98013.88
2022-07-26T05:57:05.034Z,98020.81
2022-07-26T05:59:09.871Z,98024.66
2022-07-26T06:01:14.720Z,98025.41
2022-07-26T06:03:26.005Z,98021.25
2022-07-26T06:05:33.556Z,98021.69
2022-07-26T06:07:38.526Z,98023.00
2022-07-26T06:09:43.149Z,98025.13
2022-07-26T06:11:48.261Z,98022.81
2022-07-26T06:13:56.575Z,98023.91
2022-07-26T06:16:01.596Z,98027.91
2022-07-26T06:18:06.659Z,98019.50
2022-07-26T06:20:12.143Z,98026.63
2022-07-26T06:22:21.296Z,98028.84
2022-07-26T06:24:26.452Z,98041.00
2022-07-26T06:26:31.362Z,98038.94
2022-07-26T06:28:38.609Z,98033.91
2022-07-26T06:30:43.566Z,98035.75
2022-07-26T06:32:51.312Z,98031.34
2022-07-26T06:34:56.141Z,98026.34
2022-07-26T06:37:01.201Z,98030.66
2022-07-26T06:39:08.535Z,98029.13
2022-07-26T06:41:13.452Z,98033.19
2022-07-26T06:43:18.530Z,98038.25
2022-07-26T06:45:23.419Z,98047.00
2022-07-26T06:47:29.031Z,98036.41
2022-07-26T06:49:33.915Z,98041.13
2022-07-26T06:51:39.004Z,98043.03
2022-07-26T06:53:44.442Z,98035.34
2022-07-26T06:55:51.981Z,98036.34
2022-07-26T06:57:56.800Z,98028.84
2022-07-26T07:00:01.700Z,98040.06
2022-07-26T07:02:06.933Z,98027.03
2022-07-26T07:04:12.219Z,98026.38
2022-07-26T07:06:20.008Z,98031.50
2022-07-26T07:08:25.000Z,98019.75
2022-07-26T07:10:30.019Z,98027.34
2022-07-26T07:12:37.623Z,98023.56
2022-07-26T07:14:42.861Z,98028.50
2022-07-26T07:16:47.798Z,98023.44
2022-07-26T07:18:52.577Z,98021.84
2022-07-26T07:20:57.431Z,98027.00
2022-07-26T07:23:02.307Z,98020.63
2022-07-26T07:25:08.205Z,98008.50
2022-07-26T07:27:13.448Z,98011.56
2022-07-26T07:29:23.266Z,98008.97
2022-07-26T07:31:28.815Z,98010.72
2022-07-26T07:33:43.690Z,98010.25
2022-07-26T07:35:57.785Z,98009.94
2022-07-26T07:38:03.220Z,97998.97
2022-07-26T07:40:08.684Z,98015.47
2022-07-26T07:42:13.571Z,98011.81
2022-07-26T07:44:19.567Z,98005.28
2022-07-26T07:46:31.410Z,98006.22
2022-07-26T07:48:36.468Z,98013.00
2022-07-26T07:50:41.349Z,98015.97
2022-07-26T07:52:46.334Z,98009.31
2022-07-26T07:54:56.193Z,98012.69
2022-07-26T07:57:11.503Z,97995.44
2022-07-26T07:59:18.576Z,97998.13
2022-07-26T08:01:39.479Z,97998.81
2022-07-26T08:03:45.759Z,97999.47
2022-07-26T08:05:55.620Z,98003.97
2022-07-26T08:08:00.575Z,97997.66
2022-07-26T08:10:05.757Z,97991.66
2022-07-26T08:12:20.114Z,97993.97
2022-07-26T08:14:24.943Z,97998.81
2022-07-26T08:16:32.889Z,97995.81
2022-07-26T08:18:53.383Z,98001.31
2022-07-26T08:21:03.478Z,98002.81
2022-07-26T08:23:08.949Z,98005.66
2022-07-26T08:25:13.847Z,97997.31
2022-07-26T08:27:18.724Z,98002.81
2022-07-26T08:29:23.608Z,98000.97
2022-07-26T08:31:33.954Z,98004.66
2022-07-26T08:33:40.549Z,98007.50
2022-07-26T08:35:46.050Z,98003.97
2022-07-26T08:37:51.105Z,98000.81
2022-07-26T08:39:56.062Z,98005.81
2022-07-26T08:42:01.949Z,98013.63
2022-07-26T08:44:10.995Z,98011.97
2022-07-26T08:46:16.009Z,98008.66
2022-07-26T08:48:23.278Z,98012.66
2022-07-26T08:50:29.610Z,98019.31
2022-07-26T08:52:34.619Z,98016.44
2022-07-26T08:54:39.987Z,98018.91
2022-07-26T08:56:53.973Z,98012.03
2022-07-26T08:58:58.939Z,98015.75
2022-07-26T09:01:09.075Z,98014.41
2022-07-26T09:03:32.106Z,98012.91
2022-07-26T09:05:40.048Z,98010.75
2022-07-26T09:07:45.380Z,98016.75
2022-07-26T09:10:00.781Z,98012.91
2022-07-26T09:12:20.495Z,98018.56
2022-07-26T09:14:25.829Z,98015.59
2022-07-26T09:16:34.953Z,98019.91
2022-07-26T09:18:44.923Z,98018.75
2022-07-26T09:20:50.775Z,98011.41
2022-07-26T09:23:05.114Z,98020.25
2022-07-26T09:25:26.174Z,98020.78
2022-07-26T09:27:38.732Z,98016.28
2022-07-26T09:29:48.511Z,98014.63
2022-07-26T09:31:53.436Z,98017.78
2022-07-26T09:34:01.086Z,98024.28
2022-07-26T09:36:08.743Z,98020.41
2022-07-26T09:38:17.363Z,98017.38
2022-07-26T09:40:22.519Z,98021.97
2022-07-26T09:42:29.674Z,98028.50
2022-07-26T09:44:34.886Z,98015.78
2022-07-26T09:46:56.537Z,98022.06
2022-07-26T09:49:22.327Z,98017.56
2022-07-26T09:51:49.147Z,98022.13
2022-07-26T09:53:53.939Z,98028.50
2022-07-26T09:56:00.089Z,98028.13
2022-07-26T09:58:06.630Z,98030.34
2022-07-26T10:00:13.065Z,98028.81
2022-07-26T10:02:18.731Z,98038.16
2022-07-26T10:04:27.338Z,98032.81
2022-07-26T10:06:32.224Z,98031.97
2022-07-26T10:08:37.354Z,98026.28
2022-07-26T10:10:46.627Z,98026.94
2022-07-26T10:12:54.538Z,98030.91
2022-07-26T10:15:00.167Z,98026.53
2022-07-26T10:17:05.737Z,98022.44
2022-07-26T10:19:10.573Z,98034.50
2022-07-26T10:21:30.409Z,98025.31
2022-07-26T10:23:40.027Z,98034.41
2022-07-26T10:25:50.424Z,98027.88
2022-07-26T10:27:58.051Z,98035.00
2022-07-26T10:30:33.332Z,98031.16
2022-07-26T10:32:39.656Z,98038.44
2022-07-26T10:34:45.044Z,98020.34
2022-07-26T10:37:01.051Z,98025.50
2022-07-26T10:39:14.885Z,98022.59
2022-07-26T10:41:37.892Z,98012.03
2022-07-26T10:43:45.843Z,98025.41
2022-07-26T10:45:51.886Z,98016.19
2022-07-26T10:48:16.721Z,98018.50
2022-07-26T10:50:34.793Z,98030.38
2022-07-26T10:53:01.677Z,98008.63
2022-07-26T10:55:13.593Z,98019.06
2022-07-26T10:57:21.602Z,98026.28
2022-07-26T10:59:55.239Z,98022.00
2022-07-26T11:02:01.630Z,98022.63
2022-07-26T11:04:22.648Z,98028.44
2022-07-26T11:06:32.967Z,98013.28
2022-07-26T11:08:48.129Z,98013.34
2022-07-26T11:10:55.914Z,98020.19
2022-07-26T11:13:09.686Z,98017.66
2022-07-26T11:15:25.560Z,98013.16
2022-07-26T11:17:32.841Z,98006.09
2022-07-26T11:19:46.325Z,98016.00
2022-07-26T11:22:03.092Z,98014.47
2022-07-26T11:24:11.460Z,98014.50
2022-07-26T11:26:20.593Z,98007.66
2022-07-26T11:28:25.513Z,98007.97
2022-07-26T11:30:33.975Z,98004.06
2022-07-26T11:32:39.046Z,98011.34
2022-07-26T11:34:45.707Z,98004.72
2022-07-26T11:36:51.248Z,98018.69
2022-07-26T11:39:10.568Z,98013.22
2022-07-26T11:41:34.457Z,98013.69
2022-07-26T11:43:40.693Z,98009.72
2022-07-26T11:45:51.935Z,98004.16
2022-07-26T11:48:02.718Z,98003.72
2022-07-26T11:50:21.874Z,98009.34
2022-07-26T11:52:36.151Z,98010.66
2022-07-26T11:54:48.133Z,98004.72
2022-07-26T11:56:59.779Z,97993.75
2022-07-26T11:59:07.363Z,98002.91
2022-07-26T12:01:22.101Z,98009.34
2022-07-26T12:03:26.966Z,98019.16
2022-07-26T12:05:35.658Z,98006.50
2022-07-26T12:07:40.639Z,98002.38
2022-07-26T12:09:45.905Z,98003.41
2022-07-26T12:11:55.836Z,98014.34
2022-07-26T12:14:06.206Z,98011.56
2022-07-26T12:16:19.579Z,98020.75
2022-07-26T12:18:28.159Z,98017.56
2022-07-26T12:20:33.892Z,98005.97
2022-07-26T12:22:46.408Z,97998.78
2022-07-26T12:25:02.000Z,98010.94
2022-07-26T12:27:16.573Z,98000.00
2022-07-26T12:29:35.629Z,97997.13
2022-07-26T12:31:40.558Z,97995.22
2022-07-26T12:33:50.789Z,97995.34
2022-07-26T12:36:01.221Z,97999.91
2022-07-26T12:38:06.336Z,97987.97
2022-07-26T12:40:16.213Z,97994.16
2022-07-26T12:42:34.121Z,97985.59
2022-07-26T12:44:39.593Z,97981.25
2022-07-26T12:46:45.023Z,97980.50
2022-07-26T12:48:50.307Z,97993.13
2022-07-26T12:50:55.245Z,98000.09
2022-07-26T12:53:02.685Z,97988.25
2022-07-26T12:55:10.406Z,97975.03
2022-07-26T12:57:15.312Z,97979.47
2022-07-26T12:59:24.829Z,97976.31
2022-07-26T13:01:30.133Z,97982.44
2022-07-26T13:03:35.152Z,97981.56
2022-07-26T13:05:40.030Z,97985.13
2022-07-26T13:07:44.729Z,97987.13
2022-07-26T13:10:08.269Z,97973.53
2022-07-26T13:12:16.994Z,97981.06
2022-07-26T13:14:24.455Z,97978.69
2022-07-26T13:16:29.398Z,97991.03
2022-07-26T13:18:34.064Z,97986.25
2022-07-26T13:20:40.040Z,97985.09
2022-07-26T13:22:44.900Z,97977.34
2022-07-26T13:24:49.548Z,97982.41
2022-07-26T13:26:54.908Z,97985.25
2022-07-26T13:29:00.345Z,98000.88
2022-07-26T13:31:08.541Z,97987.91
2022-07-26T13:33:16.764Z,98006.25
2022-07-26T13:35:24.604Z,98006.13
2022-07-26T13:37:29.896Z,98002.19
2022-07-26T13:39:34.715Z,98002.25
2022-07-26T13:41:39.757Z,97997.91
2022-07-26T13:43:44.405Z,98010.41
2022-07-26T13:45:49.333Z,98013.47
2022-07-26T13:47:56.530Z,97996.63
2022-07-26T13:50:01.391Z,98002.97
2022-07-26T13:52:15.550Z,97996.06
2022-07-26T13:54:22.529Z,97995.16
2022-07-26T13:56:27.428Z,98003.41
2022-07-26T13:58:32.721Z,97995.91
2022-07-26T14:00:37.663Z,98003.84
2022-07-26T14:02:42.492Z,98001.94
2022-07-26T14:04:50.518Z,98001.16
2022-07-26T14:06:55.674Z,97994.53
2022-07-26T14:09:00.678Z,98001.44
2022-07-26T14:11:05.589Z,98002.38
2022-07-26T14:13:10.517Z,98000.16
2022-07-26T14:15:21.207Z,98001.47
2022-07-26T14:17:27.304Z,97997.00
2022-07-26T14:19:31.932Z,98008.88
2022-07-26T14:21:48.968Z,97993.25
2022-07-26T14:24:05.400Z,97990.50
2022-07-26T14:26:10.240Z,97991.53
2022-07-26T14:28:14.832Z,97990.13
2022-07-26T14:30:19.937Z,98001.28
2022-07-26T14:32:24.803Z,97997.75
2022-07-26T14:34:29.433Z,97996.16
2022-07-26T14:36:34.478Z,98003.25
2022-07-26T14:38:41.925Z,98005.94
2022-07-26T14:40:47.697Z,98001.22
2022-07-26T14:42:52.639Z,97989.31
2022-07-26T14:44:57.509Z,97986.00
2022-07-26T14:47:02.093Z,98000.56
2022-07-26T14:49:11.999Z,97991.44
2022-07-26T14:51:16.680Z,97989.94
2022-07-26T14:53:22.378Z,97987.63
2022-07-26T14:55:29.954Z,97993.38
2022-07-26T14:57:39.059Z,97987.41
2022-07-26T14:59:44.871Z,97986.31
2022-07-26T15:01:49.525Z,97994.97
2022-07-26T15:03:54.376Z,97976.97
2022-07-26T15:05:59.018Z,97977.97
2022-07-26T15:08:06.219Z,97977.84
2022-07-26T15:10:13.164Z,97969.41
2022-07-26T15:12:21.700Z,97974.34
2022-07-26T15:14:28.488Z,97971.50
2022-07-26T15:16:33.782Z,97977.50
2022-07-26T15:18:38.810Z,97973.50
2022-07-26T15:20:44.501Z,97970.50
2022-07-26T15:22:51.609Z,97973.19
2022-07-26T15:24:56.482Z,97974.22
2022-07-26T15:27:01.531Z,97968.38
2022-07-26T15:29:08.952Z,97978.06
2022-07-26T15:31:14.009Z,97965.91
2022-07-26T15:33:20.679Z,97970.88
2022-07-26T15:35:25.616Z,97974.16
2022-07-26T15:37:30.625Z,97973.91
2022-07-26T15:39:35.944Z,97979.69
2022-07-26T15:41:41.056Z,97983.75
2022-07-26T15:43:48.811Z,97975.78
2022-07-26T15:46:05.470Z,97975.06
2022-07-26T15:48:16.076Z,97979.53
2022-07-26T15:50:23.166Z,97983.25
2022-07-26T15:52:28.072Z,97979.59
2022-07-26T15:54:33.087Z,97982.53
2022-07-26T15:56:38.018Z,97977.13
2022-07-26T15:58:42.868Z,97988.94
2022-07-26T16:00:51.118Z,97992.25
2022-07-26T16:02:58.574Z,97989.31
2022-07-26T16:05:03.480Z,97993.06
2022-07-26T16:07:08.685Z,97977.66
2022-07-26T16:09:17.306Z,97985.06
2022-07-26T16:11:23.474Z,97979.94
2022-07-26T16:13:28.337Z,97984.66
2022-07-26T16:15:33.232Z,97988.38
2022-07-26T16:17:38.226Z,97985.13
2022-07-26T16:19:45.873Z,97990.91
2022-07-26T16:21:50.757Z,97989.88
2022-07-26T16:23:55.638Z,97983.63
2022-07-26T16:26:00.577Z,97986.25
2022-07-26T16:28:06.192Z,97993.19
2022-07-26T16:30:12.522Z,97988.44
2022-07-26T16:32:21.290Z,97986.09
2022-07-26T16:34:26.765Z,97980.69
2022-07-26T16:36:34.115Z,97983.53
2022-07-26T16:38:38.953Z,97978.88
2022-07-26T16:40:43.554Z,97984.22
2022-07-26T16:42:48.439Z,97983.75
2022-07-26T16:44:53.630Z,97982.75
2022-07-26T16:46:58.926Z,97975.56
2022-07-26T16:49:03.823Z,97975.78
2022-07-26T16:51:09.958Z,97969.38
2022-07-26T16:53:21.286Z,97972.38
2022-07-26T16:55:26.302Z,97979.19
2022-07-26T16:57:31.098Z,97982.03
2022-07-26T16:59:35.988Z,97982.13
2022-07-26T17:01:43.566Z,97978.91
2022-07-26T17:03:48.465Z,97982.53
2022-07-26T17:05:53.154Z,97976.41
2022-07-26T17:07:58.223Z,97973.34
2022-07-26T17:10:07.562Z,97976.31
2022-07-26T17:12:12.729Z,97981.22
2022-07-26T17:14:20.715Z,97970.94
2022-07-26T17:16:25.611Z,97974.16
2022-07-26T17:18:30.191Z,97979.31
2022-07-26T17:20:35.147Z,97974.88
2022-07-26T17:22:39.784Z,97979.94
2022-07-26T17:24:44.640Z,97977.09
2022-07-26T17:26:51.890Z,97981.13
2022-07-26T17:28:56.756Z,97986.13
2022-07-26T17:31:01.557Z,97981.06
2022-07-26T17:33:06.745Z,97988.91
2022-07-26T17:35:12.089Z,97987.59
2022-07-26T17:37:17.149Z,97988.09
2022-07-26T17:39:28.349Z,97990.63
2022-07-26T17:41:53.736Z,97992.94
2022-07-26T17:43:58.750Z,97992.47
2022-07-26T17:46:03.373Z,97989.13
2022-07-26T17:48:09.187Z,97996.59
2022-07-26T17:50:35.243Z,97995.81
2022-07-26T17:52:39.160Z,97994.38
2022-07-26T17:54:44.079Z,97998.72
2022-07-26T17:56:49.714Z,98006.31
2022-07-26T17:58:57.156Z,98002.47
2022-07-26T18:01:02.052Z,98006.97
2022-07-26T18:03:06.979Z,98007.63
2022-07-26T18:05:12.859Z,98004.78
2022-07-26T18:07:20.950Z,97998.03
2022-07-26T18:09:25.986Z,98001.25
2022-07-26T18:11:30.569Z,98004.78
2022-07-26T18:13:35.617Z,98004.44
2022-07-26T18:15:43.367Z,98002.78
2022-07-26T18:17:48.335Z,98009.47
2022-07-26T18:19:52.961Z,98005.69
2022-07-26T18:21:59.195Z,98007.50
2022-07-26T18:24:16.927Z,98013.19
2022-07-26T18:26:22.036Z,98006.69
2022-07-26T18:28:26.722Z,98008.56
2022-07-26T18:30:32.264Z,98018.41
2022-07-26T18:32:39.812Z,98018.25
2022-07-26T18:34:51.556Z,98019.41
2022-07-26T18:36:57.679Z,98017.09
2022-07-26T18:39:02.727Z,98019.09
2022-07-26T18:41:07.693Z,98013.06
2022-07-26T18:43:12.691Z,98018.56
2022-07-26T18:45:17.547Z,98013.59
2022-07-26T18:47:25.486Z,98023.13
2022-07-26T18:49:34.202Z,98022.78
2022-07-26T18:51:41.046Z,98025.78
2022-07-26T18:53:46.595Z,98020.78
2022-07-26T18:55:51.716Z,98020.78
2022-07-26T18:57:56.728Z,98023.81
2022-07-26T19:00:01.635Z,98020.66
2022-07-26T19:02:06.671Z,98023.47
2022-07-26T19:04:11.382Z,98032.81
2022-07-26T19:06:18.919Z,98030.16
2022-07-26T19:08:23.762Z,98036.34
2022-07-26T19:10:28.661Z,98042.13
2022-07-26T19:12:33.575Z,98038.13
2022-07-26T19:14:38.547Z,98042.28
2022-07-26T19:16:43.656Z,98041.94
2022-07-26T19:18:50.804Z,98044.78
2022-07-26T19:20:57.748Z,98045.94
2022-07-26T19:23:05.077Z,98059.22
2022-07-26T19:25:14.796Z,98056.72
2022-07-26T19:27:19.840Z,98058.22
2022-07-26T19:29:25.317Z,98055.38
2022-07-26T19:31:32.366Z,98062.06
2022-07-26T19:33:41.085Z,98064.41
2022-07-26T19:35:45.989Z,98065.72
2022-07-26T19:37:51.495Z,98069.22
2022-07-26T19:40:01.002Z,98068.56
2022-07-26T19:42:05.937Z,98078.88
2022-07-26T19:44:10.908Z,98075.84
2022-07-26T19:46:15.935Z,98075.50
2022-07-26T19:48:21.223Z,98071.78
2022-07-26T19:50:26.116Z,98082.41
2022-07-26T19:52:31.414Z,98082.03
2022-07-26T19:54:36.448Z,98073.91
2022-07-26T19:56:43.760Z,98088.00
2022-07-26T19:58:49.492Z,98086.03
2022-07-26T20:00:54.488Z,98089.53
2022-07-26T20:02:59.381Z,98084.19
2022-07-26T20:05:04.129Z,98086.03
2022-07-26T20:07:09.034Z,98086.84
2022-07-26T20:09:14.300Z,98092.69
2022-07-26T20:11:22.850Z,98097.19
2022-07-26T20:13:30.413Z,98085.53
2022-07-26T20:15:35.340Z,98089.19
2022-07-26T20:17:41.493Z,98089.84
2022-07-26T20:19:46.482Z,98095.63
2022-07-26T20:21:51.204Z,98094.75
2022-07-26T20:23:56.032Z,98101.06
2022-07-26T20:26:00.947Z,98104.06
2022-07-26T20:28:06.361Z,98100.19
2022-07-26T20:30:14.964Z,98097.53
2022-07-26T20:32:20.351Z,98097.03
2022-07-26T20:34:25.257Z,98099.50
2022-07-26T20:36:30.115Z,98105.84
2022-07-26T20:38:35.196Z,98104.00
2022-07-26T20:40:39.855Z,98101.53
2022-07-26T20:42:44.866Z,98111.47
2022-07-26T20:44:52.853Z,98106.97
2022-07-26T20:47:00.478Z,98110.34
2022-07-26T20:49:05.368Z,98101.34
2022-07-26T20:51:13.735Z,98113.38
2022-07-26T20:53:18.904Z,98111.03
2022-07-26T20:55:24.127Z,98109.50
2022-07-26T20:57:29.095Z,98113.31
2022-07-26T20:59:35.105Z,98108.34
2022-07-26T21:01:40.519Z,98113.69
2022-07-26T21:03:51.790Z,98110.06
2022-07-26T21:05:56.669Z,98106.25
2022-07-26T21:08:01.587Z,98106.91
2022-07-26T21:10:07.230Z,98105.25
2022-07-26T21:12:12.943Z,98104.94
2022-07-26T21:14:17.989Z,98102.72
2022-07-26T21:16:23.930Z,98106.97
2022-07-26T21:18:30.056Z,98111.78
2022-07-26T21:20:37.657Z,98101.59
2022-07-26T21:22:42.524Z,98102.00
2022-07-26T21:24:47.427Z,98112.88
2022-07-26T21:26:52.385Z,98109.03
2022-07-26T21:28:57.637Z,98105.47
2022-07-26T21:31:02.504Z,98110.31
2022-07-26T21:33:07.997Z,98107.19
2022-07-26T21:35:12.985Z,98106.88
2022-07-26T21:37:20.848Z,98107.25
2022-07-26T21:39:25.781Z,98104.59
2022-07-26T21:41:30.532Z,98114.53
2022-07-26T21:43:35.386Z,98114.84
2022-07-26T21:45:41.152Z,98110.41
2022-07-26T21:47:45.779Z,98108.31
2022-07-26T21:49:50.750Z,98110.47
2022-07-26T21:51:55.667Z,98113.13
2022-07-26T21:54:03.376Z,98115.72
2022-07-26T21:56:08.415Z,98115.19
2022-07-26T21:58:15.877Z,98123.47
2022-07-26T22:00:21.044Z,98120.13
2022-07-26T22:02:26.029Z,98119.47
2022-07-26T22:04:30.926Z,98120.75
2022-07-26T22:06:35.884Z,98111.53
2022-07-26T22:08:40.942Z,98112.94
2022-07-26T22:10:48.188Z,98109.06
2022-07-26T22:12:53.698Z,98106.41
2022-07-26T22:14:58.571Z,98100.56
2022-07-26T22:17:03.561Z,98098.19
2022-07-26T22:19:08.924Z,98100.00
2022-07-26T22:21:14.307Z,98101.16
2022-07-26T22:23:20.325Z,98099.47
2022-07-26T22:25:25.392Z,98103.44
2022-07-26T22:27:32.651Z,98108.63
2022-07-26T22:29:39.934Z,98106.88
2022-07-26T22:31:45.139Z,98109.31
2022-07-26T22:33:50.059Z,98104.72
2022-07-26T22:35:55.409Z,98106.31
2022-07-26T22:38:05.036Z,98113.59
2022-07-26T22:40:11.136Z,98106.38
2022-07-26T22:42:16.321Z,98117.81
2022-07-26T22:44:24.074Z,98119.25
2022-07-26T22:46:29.363Z,98123.63
2022-07-26T22:48:38.110Z,98123.81
2022-07-26T22:50:44.330Z,98122.00
2022-07-26T22:52:49.259Z,98118.69
2022-07-26T22:54:54.112Z,98116.63
2022-07-26T22:56:58.981Z,98116.66
2022-07-26T22:59:03.975Z,98124.44
2022-07-26T23:01:11.615Z,98117.53
2022-07-26T23:03:19.999Z,98116.41
2022-07-26T23:05:36.040Z,98114.72
2022-07-26T23:07:50.623Z,98110.09
2022-07-26T23:09:55.940Z,98114.28
2022-07-26T23:12:00.881Z,98117.78
2022-07-26T23:14:05.787Z,98122.25
2022-07-26T23:16:13.466Z,98121.16
2022-07-26T23:18:20.844Z,98123.28
2022-07-26T23:20:25.753Z,98127.88
2022-07-26T23:22:30.672Z,98118.63
2022-07-26T23:24:35.560Z,98125.63
2022-07-26T23:26:40.957Z,98120.34
2022-07-26T23:28:45.779Z,98121.28
2022-07-26T23:30:50.678Z,98124.81
2022-07-26T23:32:58.145Z,98113.50
2022-07-26T23:35:02.965Z,98117.84
2022-07-26T23:37:07.891Z,98113.66
2022-07-26T23:39:13.178Z,98114.06
2022-07-26T23:41:19.086Z,98115.88
2022-07-26T23:43:24.041Z,98117.69
2022-07-26T23:45:28.906Z,98118.97
2022-07-26T23:47:33.959Z,98115.31
2022-07-26T23:49:41.424Z,98113.63
2022-07-26T23:51:48.426Z,98106.66
2022-07-26T23:53:53.804Z,98100.53
2022-07-26T23:55:58.771Z,98099.41
2022-07-26T23:58:04.807Z,98098.28
